createdAt,value
2022-08-09T00:23:56.891Z,6
2022-08-09T00:51:42.749Z,6
2022-08-09T01:20:03.317Z,5
2022-08-09T01:48:38.261Z,6
2022-08-09T02:17:15.655Z,7
2022-08-09T02:45:35.474Z,7
2022-08-09T03:14:28.642Z,7
2022-08-09T03:42:57.398Z,7
2022-08-09T04:11:56.086Z,7
2022-08-09T04:40:29.181Z,6
2022-08-09T05:08:50.995Z,8
2022-08-09T05:37:54.155Z,7
2022-08-09T06:06:35.431Z,9
2022-08-09T06:35:10.079Z,8
2022-08-09T07:04:20.489Z,8
2022-08-09T07:33:10.239Z,9
2022-08-09T08:01:30.507Z,10
2022-08-09T08:29:48.960Z,10
2022-08-09T08:58:11.883Z,8
2022-08-09T09:26:56.328Z,8
2022-08-09T09:55:57.929Z,7
2022-08-09T10:24:25.492Z,7
2022-08-09T10:52:45.148Z,7
2022-08-09T11:21:07.263Z,7
2022-08-09T11:50:01.819Z,7
2022-08-09T12:18:30.383Z,6
2022-08-09T12:46:52.493Z,6
2022-08-09T13:15:41.592Z,5
2022-08-09T13:44:29.777Z,4
2022-08-09T14:13:21.750Z,5
2022-08-09T14:41:48.104Z,4
2022-08-09T15:10:17.093Z,5
2022-08-09T15:38:50.533Z,8
2022-08-09T16:07:21.824Z,9
2022-08-09T16:35:53.619Z,13
2022-08-09T17:04:26.239Z,9
2022-08-09T17:32:38.711Z,6
2022-08-09T18:00:58.792Z,4
2022-08-09T18:30:36.923Z,4
2022-08-09T18:57:56.587Z,4
2022-08-09T19:26:35.622Z,5
2022-08-09T19:54:51.586Z,6
2022-08-09T20:23:42.117Z,6
2022-08-09T20:52:31.715Z,6
2022-08-09T21:21:00.073Z,6
2022-08-09T21:49:27.178Z,7
2022-08-09T22:18:11.989Z,6
2022-08-09T22:48:06.851Z,6
2022-08-09T23:14:59.230Z,7
2022-08-09T23:43:36.914Z,7
